Time;durP1;ratioP1;P1;durP2;ratioP2;P2;SDS_P1;SDS_P2;PMS_P1;PMS_P2;Temp;Humidity;BMP_temperature;BMP_pressure;BME280_temperature;BME280_humidity;BME280_pressure;Samples;Min_cycle;Max_cycle;Signal;HPM_P1;HPM_P2
2021/08/17 00:00:03;;;;;;;5.50;1.63;;;;;;;;;;4985963;28;20034;-71
2021/08/17 00:02:29;;;;;;;6.75;1.98;;;;;;;;;;4982096;28;20052;-72
2021/08/17 00:04:55;;;;;;;6.68;2.00;;;;;;;;;;4986429;28;20450;-72
2021/08/17 00:07:22;;;;;;;3.03;1.58;;;;;;;;;;4971068;28;20085;-72
2021/08/17 00:09:48;;;;;;;3.63;2.00;;;;;;;;;;4986182;28;20564;-71
2021/08/17 00:12:14;;;;;;;4.50;2.20;;;;;;;;;;4990179;28;20121;-72
2021/08/17 00:14:40;;;;;;;2.95;1.90;;;;;;;;;;4983600;28;20077;-72
2021/08/17 00:17:10;;;;;;;3.13;1.67;;;;;;;;;;4980904;28;20624;-71
2021/08/17 00:19:40;;;;;;;5.90;1.83;;;;;;;;;;4986131;28;20444;-72
2021/08/17 00:22:07;;;;;;;7.15;2.53;;;;;;;;;;4973249;28;20039;-73
2021/08/17 00:24:33;;;;;;;10.32;3.13;;;;;;;;;;4987965;28;20034;-72
2021/08/17 00:26:59;;;;;;;3.17;2.08;;;;;;;;;;4983250;28;20114;-72
2021/08/17 00:29:25;;;;;;;4.10;1.98;;;;;;;;;;4986315;28;20046;-72
2021/08/17 00:31:51;;;;;;;4.05;1.75;;;;;;;;;;4986111;28;20037;-72
2021/08/17 00:34:17;;;;;;;4.47;1.98;;;;;;;;;;4988070;28;20065;-72
2021/08/17 00:36:43;;;;;;;4.90;2.00;;;;;;;;;;4981496;28;20058;-72
2021/08/17 00:39:10;;;;;;;5.03;1.90;;;;;;;;;;4982335;28;20108;-72
2021/08/17 00:41:38;;;;;;;7.70;2.00;;;;;;;;;;4989556;28;20033;-72
2021/08/17 00:44:05;;;;;;;8.40;1.90;;;;;;;;;;4985179;28;20093;-72
2021/08/17 00:46:32;;;;;;;5.35;2.03;;;;;;;;;;4987353;28;20034;-72
2021/08/17 00:48:58;;;;;;;8.13;1.98;;;;;;;;;;4985269;28;20085;-71
2021/08/17 00:51:23;;;;;;;6.22;2.08;;;;;;;;;;4999132;28;20070;-71
2021/08/17 00:53:52;;;;;;;6.30;1.92;;;;;;;;;;4990454;28;20030;-72
2021/08/17 00:56:18;;;;;;;3.08;1.75;;;;;;;;;;4987805;28;20037;-72
2021/08/17 00:58:44;;;;;;;6.90;2.20;;;;;;;;;;4985165;28;20023;-71
2021/08/17 01:01:10;;;;;;;9.02;2.05;;;;;;;;;;4985457;28;20034;-72
2021/08/17 01:03:39;;;;;;;5.78;2.03;;;;;;;;;;4981309;28;20066;-71
2021/08/17 01:06:05;;;;;;;7.82;2.45;;;;;;;;;;4984159;28;20022;-72
2021/08/17 01:08:31;;;;;;;5.07;2.00;;;;;;;;;;4984085;28;20577;-71
2021/08/17 01:10:57;;;;;;;8.73;2.15;;;;;;;;;;4978138;28;20161;-72
2021/08/17 01:13:26;;;;;;;5.97;1.70;;;;;;;;;;4986222;28;20030;-72
2021/08/17 01:15:53;;;;;;;8.98;2.10;;;;;;;;;;4988104;28;20452;-71
2021/08/17 01:18:19;;;;;;;2.88;1.85;;;;;;;;;;4987321;28;20038;-71
2021/08/17 01:20:48;;;;;;;5.50;2.08;;;;;;;;;;4978101;28;20113;-72
2021/08/17 01:23:17;;;;;;;4.32;1.85;;;;;;;;;;4974878;28;20038;-71
2021/08/17 01:25:43;;;;;;;3.58;1.90;;;;;;;;;;4986372;28;20025;-72
2021/08/17 01:28:09;;;;;;;9.13;2.58;;;;;;;;;;4982748;28;20027;-72
2021/08/17 01:30:35;;;;;;;6.38;2.20;;;;;;;;;;4987074;28;20029;-72
2021/08/17 01:33:01;;;;;;;4.70;1.88;;;;;;;;;;4986221;28;20446;-72
2021/08/17 01:35:27;;;;;;;4.28;1.67;;;;;;;;;;4988128;28;20516;-72
2021/08/17 01:37:53;;;;;;;5.20;1.85;;;;;;;;;;4983666;28;20035;-71
2021/08/17 01:40:19;;;;;;;6.80;2.25;;;;;;;;;;4987410;28;20035;-72
2021/08/17 01:42:51;;;;;;;8.93;2.22;;;;;;;;;;4986430;28;20504;-71
2021/08/17 01:45:18;;;;;;;5.07;1.80;;;;;;;;;;4984771;28;20548;-72
2021/08/17 01:47:44;;;;;;;5.57;1.88;;;;;;;;;;4979580;28;20113;-71
2021/08/17 01:50:11;;;;;;;6.80;2.08;;;;;;;;;;4981162;28;20113;-72
2021/08/17 01:52:37;;;;;;;7.53;2.30;;;;;;;;;;4987326;28;20026;-71
2021/08/17 01:55:04;;;;;;;6.18;1.50;;;;;;;;;;4987627;28;20030;-72
2021/08/17 01:57:30;;;;;;;3.35;1.80;;;;;;;;;;4985552;28;20050;-71
2021/08/17 01:59:56;;;;;;;4.65;1.60;;;;;;;;;;4984898;28;20034;-71
2021/08/17 02:02:22;;;;;;;5.32;2.60;;;;;;;;;;4985763;28;20525;-71
2021/08/17 02:04:48;;;;;;;7.13;1.83;;;;;;;;;;4987629;28;20367;-71
2021/08/17 02:07:14;;;;;;;5.65;2.10;;;;;;;;;;4970338;28;20126;-71
2021/08/17 02:09:40;;;;;;;5.55;1.67;;;;;;;;;;4979529;28;20042;-71
2021/08/17 02:12:06;;;;;;;3.33;1.83;;;;;;;;;;4978132;28;20384;-71
2021/08/17 02:14:32;;;;;;;2.45;1.67;;;;;;;;;;4985127;28;20030;-71
2021/08/17 02:16:58;;;;;;;6.03;1.60;;;;;;;;;;4981912;28;20051;-72
2021/08/17 02:19:24;;;;;;;4.88;1.83;;;;;;;;;;4979068;28;20559;-71
2021/08/17 02:21:50;;;;;;;3.63;1.80;;;;;;;;;;4975661;28;20080;-71
2021/08/17 02:24:16;;;;;;;8.30;1.80;;;;;;;;;;4985043;28;20362;-71
2021/08/17 02:26:42;;;;;;;13.18;1.83;;;;;;;;;;4980101;28;20302;-72
2021/08/17 02:29:07;;;;;;;9.55;1.95;;;;;;;;;;4984445;28;20034;-71
2021/08/17 02:31:33;;;;;;;4.65;1.42;;;;;;;;;;4980538;28;20030;-71
2021/08/17 02:33:59;;;;;;;7.65;1.73;;;;;;;;;;4981063;28;20109;-71
2021/08/17 02:36:25;;;;;;;5.65;1.83;;;;;;;;;;4978182;28;20513;-72
2021/08/17 02:38:51;;;;;;;4.00;1.60;;;;;;;;;;4987553;28;20477;-71
2021/08/17 02:41:17;;;;;;;4.25;1.60;;;;;;;;;;4983706;28;20045;-71
2021/08/17 02:43:43;;;;;;;4.20;1.50;;;;;;;;;;4988521;28;20042;-71
2021/08/17 02:46:09;;;;;;;4.75;1.50;;;;;;;;;;4980645;28;20038;-71
2021/08/17 02:48:35;;;;;;;5.40;1.30;;;;;;;;;;4979527;28;20385;-71
2021/08/17 02:51:01;;;;;;;6.22;1.60;;;;;;;;;;5002538;28;20033;-71
2021/08/17 02:53:27;;;;;;;3.60;1.70;;;;;;;;;;4993420;28;20031;-71
2021/08/17 02:55:53;;;;;;;4.25;1.73;;;;;;;;;;4989130;28;20023;-71
2021/08/17 02:58:18;;;;;;;6.93;1.83;;;;;;;;;;4987365;28;20370;-71
2021/08/17 03:00:46;;;;;;;8.20;1.80;;;;;;;;;;4982252;28;20497;-71
2021/08/17 03:03:12;;;;;;;7.75;1.73;;;;;;;;;;4989397;28;20038;-70
2021/08/17 03:05:38;;;;;;;3.78;1.70;;;;;;;;;;4987438;28;20030;-71
2021/08/17 03:08:04;;;;;;;5.82;1.65;;;;;;;;;;4986318;28;20037;-71
2021/08/17 03:10:31;;;;;;;5.03;2.10;;;;;;;;;;4984599;28;20031;-72
2021/08/17 03:12:57;;;;;;;5.15;1.85;;;;;;;;;;4978199;28;20034;-71
2021/08/17 03:15:23;;;;;;;5.60;1.88;;;;;;;;;;4984446;28;20026;-72
2021/08/17 03:17:49;;;;;;;7.03;1.60;;;;;;;;;;4977982;28;20034;-71
2021/08/17 03:20:16;;;;;;;5.47;2.40;;;;;;;;;;4982933;28;20040;-71
2021/08/17 03:22:42;;;;;;;6.50;1.73;;;;;;;;;;4981950;28;20026;-71
2021/08/17 03:25:10;;;;;;;3.88;1.60;;;;;;;;;;4984137;28;20552;-71
2021/08/17 03:27:36;;;;;;;4.22;1.67;;;;;;;;;;4986229;28;20096;-71
2021/08/17 03:30:04;;;;;;;4.35;2.05;;;;;;;;;;4984117;28;20030;-71
2021/08/17 03:32:30;;;;;;;5.53;2.00;;;;;;;;;;4989321;28;20388;-71
2021/08/17 03:34:56;;;;;;;4.03;1.95;;;;;;;;;;4983050;28;20023;-72
2021/08/17 03:37:22;;;;;;;6.80;1.95;;;;;;;;;;4971813;28;20023;-72
2021/08/17 03:39:48;;;;;;;3.60;2.10;;;;;;;;;;4985665;28;20046;-71
2021/08/17 03:42:14;;;;;;;5.82;2.20;;;;;;;;;;4978737;28;20478;-71
2021/08/17 03:44:40;;;;;;;4.30;1.98;;;;;;;;;;4987894;28;20026;-71
2021/08/17 03:47:06;;;;;;;9.70;2.10;;;;;;;;;;4979214;28;20155;-71
2021/08/17 03:49:32;;;;;;;8.45;2.10;;;;;;;;;;4982772;28;20031;-71
2021/08/17 03:51:58;;;;;;;5.15;2.20;;;;;;;;;;4989616;28;20032;-72
2021/08/17 03:54:23;;;;;;;5.70;2.10;;;;;;;;;;4986743;28;20022;-72
2021/08/17 03:56:49;;;;;;;9.68;2.55;;;;;;;;;;4988404;28;20493;-71
2021/08/17 03:59:15;;;;;;;8.75;2.40;;;;;;;;;;4982865;28;20031;-72
2021/08/17 04:01:41;;;;;;;7.47;2.75;;;;;;;;;;4979724;28;20181;-72
2021/08/17 04:04:07;;;;;;;6.95;2.15;;;;;;;;;;4979883;28;20045;-71
2021/08/17 04:06:33;;;;;;;7.10;2.17;;;;;;;;;;4988784;28;20030;-71
2021/08/17 04:08:59;;;;;;;6.43;2.47;;;;;;;;;;4988851;28;20019;-72
2021/08/17 04:11:25;;;;;;;7.25;2.65;;;;;;;;;;4987546;28;20361;-71
2021/08/17 04:13:51;;;;;;;5.57;1.98;;;;;;;;;;4984059;28;20229;-71
2021/08/17 04:16:17;;;;;;;4.32;2.20;;;;;;;;;;4987974;28;20027;-74
2021/08/17 04:18:43;;;;;;;6.10;2.08;;;;;;;;;;4989111;28;20074;-73
2021/08/17 04:21:09;;;;;;;3.33;1.95;;;;;;;;;;4989298;28;20039;-73
2021/08/17 04:23:35;;;;;;;5.47;2.00;;;;;;;;;;4978288;28;20114;-73
2021/08/17 04:26:01;;;;;;;3.55;2.05;;;;;;;;;;4987042;28;20029;-74
2021/08/17 04:28:28;;;;;;;5.97;2.30;;;;;;;;;;4981370;28;20030;-73
2021/08/17 04:30:54;;;;;;;9.18;2.55;;;;;;;;;;4987700;28;20030;-73
2021/08/17 04:33:20;;;;;;;5.75;2.10;;;;;;;;;;4983229;28;20038;-73
2021/08/17 04:35:46;;;;;;;5.85;1.95;;;;;;;;;;4980235;28;20031;-73
2021/08/17 04:38:12;;;;;;;5.22;1.92;;;;;;;;;;4977763;28;20043;-73
2021/08/17 04:40:38;;;;;;;2.83;1.73;;;;;;;;;;4980813;28;20026;-70
2021/08/17 04:43:04;;;;;;;5.97;2.40;;;;;;;;;;4987365;28;20042;-70
2021/08/17 04:45:30;;;;;;;7.28;2.22;;;;;;;;;;4982458;28;20069;-70
2021/08/17 04:47:56;;;;;;;3.85;1.92;;;;;;;;;;4987563;28;20037;-70
2021/08/17 04:50:22;;;;;;;4.32;1.80;;;;;;;;;;4983281;28;20236;-71
2021/08/17 04:52:48;;;;;;;4.30;2.05;;;;;;;;;;4988956;28;20719;-70
2021/08/17 04:55:14;;;;;;;6.03;1.80;;;;;;;;;;4981094;28;20042;-70
2021/08/17 04:57:52;;;;;;;5.75;2.10;;;;;;;;;;4982825;28;20061;-70
2021/08/17 05:00:19;;;;;;;6.45;2.00;;;;;;;;;;4983079;28;20078;-71
2021/08/17 05:02:45;;;;;;;5.15;1.83;;;;;;;;;;4982555;28;20026;-71
2021/08/17 05:05:11;;;;;;;8.43;2.80;;;;;;;;;;4983967;28;20033;-70
2021/08/17 05:07:37;;;;;;;5.68;2.10;;;;;;;;;;4984751;28;20033;-70
2021/08/17 05:10:05;;;;;;;3.50;1.90;;;;;;;;;;4982976;28;20129;-70
2021/08/17 05:12:31;;;;;;;6.35;1.90;;;;;;;;;;4987271;28;20050;-71
2021/08/17 05:14:57;;;;;;;6.18;1.83;;;;;;;;;;4985252;28;20501;-72
2021/08/17 05:17:23;;;;;;;7.60;1.92;;;;;;;;;;4986578;28;20496;-72
2021/08/17 05:19:49;;;;;;;7.53;2.10;;;;;;;;;;4983364;28;20050;-75
2021/08/17 05:22:15;;;;;;;6.50;1.45;;;;;;;;;;4985410;28;20122;-73
2021/08/17 05:24:42;;;;;;;4.47;1.63;;;;;;;;;;4978130;28;20038;-72
2021/08/17 05:27:08;;;;;;;6.45;2.00;;;;;;;;;;4985976;28;20030;-69
2021/08/17 05:29:34;;;;;;;4.20;1.60;;;;;;;;;;4984815;28;20022;-69
2021/08/17 05:32:18;;;;;;;5.20;1.98;;;;;;;;;;4973535;28;20177;-69
2021/08/17 05:34:44;;;;;;;4.57;1.80;;;;;;;;;;4977088;28;20117;-69
2021/08/17 05:37:10;;;;;;;7.47;1.90;;;;;;;;;;4969526;28;20145;-69
2021/08/17 05:39:36;;;;;;;8.77;1.60;;;;;;;;;;4975955;28;20034;-69
2021/08/17 05:42:02;;;;;;;6.35;1.75;;;;;;;;;;4976040;28;20043;-68
2021/08/17 05:44:28;;;;;;;7.30;1.92;;;;;;;;;;4973989;28;20039;-69
2021/08/17 05:46:54;;;;;;;11.98;2.25;;;;;;;;;;4969331;28;20389;-69
2021/08/17 05:49:20;;;;;;;4.53;1.90;;;;;;;;;;4969421;28;20081;-69
2021/08/17 05:51:46;;;;;;;8.98;2.17;;;;;;;;;;4995830;28;20509;-69
2021/08/17 05:54:12;;;;;;;7.78;1.88;;;;;;;;;;4979473;28;20035;-69
2021/08/17 05:56:38;;;;;;;8.77;2.33;;;;;;;;;;4976661;28;20536;-69
2021/08/17 05:59:03;;;;;;;6.55;2.42;;;;;;;;;;4983162;28;20027;-69
2021/08/17 06:01:29;;;;;;;5.82;2.38;;;;;;;;;;4986294;28;20049;-69
2021/08/17 06:03:55;;;;;;;4.68;2.50;;;;;;;;;;4975155;28;20062;-69
2021/08/17 06:06:21;;;;;;;6.95;2.60;;;;;;;;;;4976223;28;20041;-69
2021/08/17 06:08:47;;;;;;;9.68;2.45;;;;;;;;;;4969109;28;20023;-69
2021/08/17 06:11:13;;;;;;;10.50;2.85;;;;;;;;;;4974486;28;20039;-69
2021/08/17 06:13:40;;;;;;;11.68;2.55;;;;;;;;;;4977739;28;20027;-69
2021/08/17 06:16:06;;;;;;;9.20;2.80;;;;;;;;;;4984590;28;20030;-69
2021/08/17 06:18:31;;;;;;;6.68;2.30;;;;;;;;;;4984277;28;20085;-69
2021/08/17 06:20:57;;;;;;;7.97;2.20;;;;;;;;;;4973026;28;20346;-69
2021/08/17 06:23:23;;;;;;;9.63;2.20;;;;;;;;;;4984655;28;20042;-69
2021/08/17 06:25:49;;;;;;;5.35;1.90;;;;;;;;;;4985177;28;20030;-69
2021/08/17 06:28:15;;;;;;;9.85;2.53;;;;;;;;;;4981378;28;20110;-69
2021/08/17 06:30:41;;;;;;;10.90;2.80;;;;;;;;;;4980053;28;20477;-69
2021/08/17 06:33:07;;;;;;;9.05;2.38;;;;;;;;;;4989907;28;20022;-70
2021/08/17 06:35:33;;;;;;;6.93;1.95;;;;;;;;;;4980184;28;20054;-69
2021/08/17 06:37:59;;;;;;;4.97;2.10;;;;;;;;;;4977467;28;20478;-69
2021/08/17 06:40:26;;;;;;;8.80;1.63;;;;;;;;;;4988052;28;20044;-69
2021/08/17 06:42:52;;;;;;;11.95;2.60;;;;;;;;;;4972640;28;20033;-68
2021/08/17 06:45:19;;;;;;;6.10;1.95;;;;;;;;;;4972400;28;20034;-68
2021/08/17 06:47:46;;;;;;;8.82;1.70;;;;;;;;;;4975147;28;20401;-71
2021/08/17 06:50:12;;;;;;;7.28;1.70;;;;;;;;;;4978332;28;20022;-71
2021/08/17 06:52:38;;;;;;;3.67;1.90;;;;;;;;;;4989642;28;20359;-71
2021/08/17 06:55:04;;;;;;;8.20;2.08;;;;;;;;;;4968562;28;20113;-70
2021/08/17 06:57:29;;;;;;;6.20;1.95;;;;;;;;;;4974081;28;20031;-69
2021/08/17 06:59:55;;;;;;;5.90;1.85;;;;;;;;;;4990971;28;20251;-69
2021/08/17 07:02:21;;;;;;;4.78;2.05;;;;;;;;;;4972654;28;20529;-69
2021/08/17 07:04:47;;;;;;;7.90;2.35;;;;;;;;;;4976996;28;20058;-69
2021/08/17 07:07:13;;;;;;;5.78;2.53;;;;;;;;;;4977460;28;20392;-72
2021/08/17 07:09:39;;;;;;;7.30;1.83;;;;;;;;;;4989623;28;20506;-70
2021/08/17 07:12:05;;;;;;;9.07;2.10;;;;;;;;;;4972168;28;20536;-69
2021/08/17 07:14:31;;;;;;;5.85;1.60;;;;;;;;;;4972101;28;20265;-70
2021/08/17 07:16:57;;;;;;;7.07;2.33;;;;;;;;;;4971717;28;20055;-69
2021/08/17 07:19:23;;;;;;;9.07;2.40;;;;;;;;;;4981115;28;20544;-69
2021/08/17 07:21:49;;;;;;;6.57;1.90;;;;;;;;;;4983406;28;20034;-69
2021/08/17 07:24:15;;;;;;;5.78;1.92;;;;;;;;;;4978633;28;20057;-69
2021/08/17 07:26:41;;;;;;;8.30;2.08;;;;;;;;;;4972496;28;20114;-69
2021/08/17 07:29:07;;;;;;;5.65;2.10;;;;;;;;;;4991158;28;20038;-69
2021/08/17 07:31:36;;;;;;;6.32;2.03;;;;;;;;;;4986155;28;20486;-69
2021/08/17 07:34:02;;;;;;;7.85;1.95;;;;;;;;;;4977870;28;20051;-69
2021/08/17 07:36:28;;;;;;;8.85;2.20;;;;;;;;;;4978832;28;20417;-69
2021/08/17 07:38:54;;;;;;;4.30;1.92;;;;;;;;;;4990447;28;20036;-69
2021/08/17 07:41:20;;;;;;;5.57;1.67;;;;;;;;;;4983736;28;20041;-69
2021/08/17 07:43:46;;;;;;;6.13;2.10;;;;;;;;;;4981708;28;20061;-70
2021/08/17 07:46:12;;;;;;;6.53;1.83;;;;;;;;;;4972099;28;20548;-69
2021/08/17 07:48:38;;;;;;;4.60;1.70;;;;;;;;;;4975416;28;20525;-69
2021/08/17 07:51:04;;;;;;;6.47;1.83;;;;;;;;;;4986732;28;20033;-70
2021/08/17 07:53:30;;;;;;;7.03;1.73;;;;;;;;;;4977814;28;20058;-69
2021/08/17 07:55:56;;;;;;;2.05;1.60;;;;;;;;;;4974817;28;20031;-69
2021/08/17 07:58:22;;;;;;;6.82;2.17;;;;;;;;;;4983591;28;20030;-69
2021/08/17 08:00:48;;;;;;;6.88;1.70;;;;;;;;;;4990715;28;20393;-69
2021/08/17 08:03:14;;;;;;;11.68;2.42;;;;;;;;;;4990477;28;20076;-69
2021/08/17 08:05:40;;;;;;;5.57;2.05;;;;;;;;;;4990425;28;20402;-69
2021/08/17 08:08:06;;;;;;;6.45;2.05;;;;;;;;;;4984796;28;20026;-69
2021/08/17 08:10:32;;;;;;;5.65;1.75;;;;;;;;;;4974558;28;20051;-69
2021/08/17 08:12:57;;;;;;;4.38;1.80;;;;;;;;;;4980968;28;20022;-69
2021/08/17 08:15:24;;;;;;;3.40;1.98;;;;;;;;;;4971100;28;20166;-69
2021/08/17 08:17:49;;;;;;;3.63;1.67;;;;;;;;;;4981905;28;20030;-70
2021/08/17 08:20:15;;;;;;;6.13;1.90;;;;;;;;;;4972372;28;20029;-69
2021/08/17 08:22:42;;;;;;;5.50;2.08;;;;;;;;;;4973225;28;20034;-69
2021/08/17 08:25:08;;;;;;;8.40;2.00;;;;;;;;;;4983103;28;20117;-69
2021/08/17 08:27:35;;;;;;;7.13;2.00;;;;;;;;;;4985378;28;20359;-70
2021/08/17 08:30:01;;;;;;;4.50;1.60;;;;;;;;;;4983322;28;20031;-70
2021/08/17 08:32:27;;;;;;;5.93;1.90;;;;;;;;;;4982441;28;20037;-70
2021/08/17 08:34:52;;;;;;;3.85;1.52;;;;;;;;;;4986976;28;20529;-70
2021/08/17 08:37:18;;;;;;;3.38;1.67;;;;;;;;;;4986270;28;20077;-70
2021/08/17 08:39:44;;;;;;;6.25;1.30;;;;;;;;;;4981135;28;20104;-71
2021/08/17 08:42:11;;;;;;;4.65;1.58;;;;;;;;;;4971435;28;20106;-70
2021/08/17 08:44:43;;;;;;;5.05;2.28;;;;;;;;;;4984573;28;20058;-70
2021/08/17 08:47:10;;;;;;;3.72;1.63;;;;;;;;;;4986030;28;20121;-70
2021/08/17 08:49:40;;;;;;;4.85;1.35;;;;;;;;;;4975910;28;20402;-70
2021/08/17 08:52:06;;;;;;;3.63;1.30;;;;;;;;;;4985949;28;20023;-69
2021/08/17 08:54:32;;;;;;;5.95;1.55;;;;;;;;;;4975904;28;20030;-69
2021/08/17 08:56:58;;;;;;;3.95;1.92;;;;;;;;;;4977321;28;20669;-70
2021/08/17 08:59:24;;;;;;;8.05;1.92;;;;;;;;;;4980169;28;20035;-70
2021/08/17 09:01:50;;;;;;;6.30;1.67;;;;;;;;;;4984409;28;20465;-70
2021/08/17 09:04:16;;;;;;;7.65;2.08;;;;;;;;;;4973867;28;20520;-69
2021/08/17 09:06:50;;;;;;;8.25;1.67;;;;;;;;;;4970767;28;20478;-69
2021/08/17 09:09:16;;;;;;;8.05;2.17;;;;;;;;;;4979731;28;20039;-70
2021/08/17 09:11:44;;;;;;;7.63;2.10;;;;;;;;;;4981072;28;20054;-70
2021/08/17 09:14:17;;;;;;;5.47;1.70;;;;;;;;;;4975471;28;20023;-70
2021/08/17 09:16:44;;;;;;;4.95;1.50;;;;;;;;;;4975278;28;20228;-70
2021/08/17 09:19:23;;;;;;;4.93;1.73;;;;;;;;;;4978271;28;20089;-71
2021/08/17 09:21:49;;;;;;;3.50;1.73;;;;;;;;;;4985293;28;20050;-69
2021/08/17 09:24:18;;;;;;;9.30;2.85;;;;;;;;;;4976625;28;20030;-70
2021/08/17 09:26:45;;;;;;;4.22;2.08;;;;;;;;;;4971824;28;20485;-70
2021/08/17 09:29:20;;;;;;;6.78;1.73;;;;;;;;;;4991723;28;20367;-70
2021/08/17 09:31:46;;;;;;;3.97;1.45;;;;;;;;;;4983960;28;20504;-70
2021/08/17 09:34:12;;;;;;;5.85;2.17;;;;;;;;;;4988699;28;20026;-70
2021/08/17 09:36:39;;;;;;;8.20;2.20;;;;;;;;;;4980653;28;20053;-70
2021/08/17 09:39:05;;;;;;;3.85;1.58;;;;;;;;;;4982997;28;20390;-70
2021/08/17 09:41:31;;;;;;;9.43;2.63;;;;;;;;;;4969684;28;20027;-70
2021/08/17 09:43:57;;;;;;;4.82;2.03;;;;;;;;;;4981465;28;20031;-70
2021/08/17 09:46:31;;;;;;;4.43;1.60;;;;;;;;;;4972868;28;20023;-70
2021/08/17 09:48:58;;;;;;;5.70;2.35;;;;;;;;;;4969238;28;20022;-70
2021/08/17 09:51:36;;;;;;;8.48;2.42;;;;;;;;;;4986432;28;20025;-69
2021/08/17 09:54:15;;;;;;;4.95;2.00;;;;;;;;;;4972005;28;20478;-69
2021/08/17 09:56:41;;;;;;;9.48;1.80;;;;;;;;;;4976101;28;20027;-70
2021/08/17 09:59:07;;;;;;;4.13;1.80;;;;;;;;;;4983608;28;20026;-70
2021/08/17 10:01:35;;;;;;;8.68;2.20;;;;;;;;;;4976495;28;20035;-70
2021/08/17 10:04:02;;;;;;;6.70;2.10;;;;;;;;;;4980098;28;20062;-70
2021/08/17 10:06:28;;;;;;;12.15;1.90;;;;;;;;;;4980387;28;20030;-70
2021/08/17 10:08:56;;;;;;;7.30;2.25;;;;;;;;;;4981205;28;20497;-69
2021/08/17 10:11:22;;;;;;;4.88;1.83;;;;;;;;;;4979550;28;20051;-70
2021/08/17 10:13:48;;;;;;;6.60;2.00;;;;;;;;;;4978173;28;20069;-71
2021/08/17 10:16:17;;;;;;;9.32;2.20;;;;;;;;;;4977430;28;20054;-71
2021/08/17 10:18:44;;;;;;;10.23;2.60;;;;;;;;;;4970027;28;20077;-70
2021/08/17 10:21:11;;;;;;;10.43;2.30;;;;;;;;;;4974338;28;20118;-71
2021/08/17 10:23:40;;;;;;;4.78;1.92;;;;;;;;;;4969591;28;20031;-71
2021/08/17 10:26:06;;;;;;;7.20;2.00;;;;;;;;;;4976216;28;20401;-70
2021/08/17 10:28:39;;;;;;;4.88;2.00;;;;;;;;;;4982933;28;20038;-71
2021/08/17 10:31:11;;;;;;;7.05;1.90;;;;;;;;;;4972689;28;20150;-71
2021/08/17 10:33:42;;;;;;;5.20;1.88;;;;;;;;;;4969163;28;20034;-71
2021/08/17 10:36:08;;;;;;;3.90;2.05;;;;;;;;;;4978597;28;20050;-71
2021/08/17 10:38:35;;;;;;;5.47;2.22;;;;;;;;;;4981623;28;20039;-71
2021/08/17 10:41:03;;;;;;;6.63;1.92;;;;;;;;;;4973469;28;20248;-71
2021/08/17 10:43:32;;;;;;;6.90;1.80;;;;;;;;;;4968974;28;20034;-71
2021/08/17 10:46:04;;;;;;;6.65;1.70;;;;;;;;;;4974578;28;20030;-70
2021/08/17 10:48:45;;;;;;;3.90;1.55;;;;;;;;;;4980944;28;20121;-71
2021/08/17 10:51:31;;;;;;;6.57;1.80;;;;;;;;;;4989756;28;20054;-71
2021/08/17 10:54:00;;;;;;;8.32;1.60;;;;;;;;;;4971547;28;20600;-70
2021/08/17 10:56:30;;;;;;;16.48;2.03;;;;;;;;;;4971785;28;20038;-71
2021/08/17 10:58:57;;;;;;;3.80;1.40;;;;;;;;;;4982673;28;20490;-70
2021/08/17 11:01:32;;;;;;;6.70;1.58;;;;;;;;;;4973028;28;20038;-70
2021/08/17 11:03:59;;;;;;;7.07;1.60;;;;;;;;;;4984030;28;20097;-71
2021/08/17 11:06:35;;;;;;;5.40;1.80;;;;;;;;;;4974566;28;20122;-71
2021/08/17 11:09:02;;;;;;;6.25;1.63;;;;;;;;;;4975982;28;20037;-71
2021/08/17 11:11:28;;;;;;;5.32;1.60;;;;;;;;;;4977439;28;20490;-71
2021/08/17 11:14:01;;;;;;;6.30;1.98;;;;;;;;;;4972132;28;20034;-70
2021/08/17 11:16:27;;;;;;;4.22;1.70;;;;;;;;;;4973750;28;20034;-71
2021/08/17 11:18:54;;;;;;;7.32;2.03;;;;;;;;;;4984940;28;20026;-70
2021/08/17 11:21:30;;;;;;;4.50;1.55;;;;;;;;;;4988934;28;20665;-70
2021/08/17 11:24:10;;;;;;;9.38;2.22;;;;;;;;;;4981914;28;20026;-70
2021/08/17 11:26:37;;;;;;;4.97;1.63;;;;;;;;;;4971682;28;20073;-70
2021/08/17 11:29:03;;;;;;;5.47;1.55;;;;;;;;;;4971748;28;20027;-70
2021/08/17 11:31:29;;;;;;;3.42;1.58;;;;;;;;;;4977999;28;20030;-70
2021/08/17 11:34:13;;;;;;;6.75;1.45;;;;;;;;;;4980138;28;20033;-70
2021/08/17 11:36:39;;;;;;;7.20;1.60;;;;;;;;;;4979094;28;20031;-69
2021/08/17 11:39:22;;;;;;;7.30;2.10;;;;;;;;;;4977449;28;20030;-70
2021/08/17 11:41:48;;;;;;;3.70;1.90;;;;;;;;;;4974954;28;20042;-70
2021/08/17 11:44:15;;;;;;;3.85;1.70;;;;;;;;;;4974507;28;20018;-70
2021/08/17 11:46:41;;;;;;;6.43;2.10;;;;;;;;;;4989464;28;20030;-70
2021/08/17 11:49:20;;;;;;;7.20;1.63;;;;;;;;;;4987736;28;20050;-69
2021/08/17 11:51:46;;;;;;;3.38;1.60;;;;;;;;;;4990194;28;20030;-70
2021/08/17 11:54:15;;;;;;;4.60;1.73;;;;;;;;;;4986745;28;20030;-70
2021/08/17 11:56:42;;;;;;;8.07;1.83;;;;;;;;;;4978280;28;20030;-70
2021/08/17 11:59:08;;;;;;;5.90;2.05;;;;;;;;;;4980638;28;20026;-71
2021/08/17 12:01:33;;;;;;;7.75;1.85;;;;;;;;;;4988157;28;20038;-71
2021/08/17 12:04:08;;;;;;;3.60;1.75;;;;;;;;;;4976617;28;20029;-70
2021/08/17 12:06:34;;;;;;;7.90;1.95;;;;;;;;;;4976829;28;20030;-70
2021/08/17 12:09:19;;;;;;;9.25;2.13;;;;;;;;;;4971691;28;20030;-69
2021/08/17 12:11:58;;;;;;;6.22;1.70;;;;;;;;;;4985964;28;20500;-70
2021/08/17 12:14:24;;;;;;;4.90;1.88;;;;;;;;;;4974417;28;20652;-70
2021/08/17 12:16:54;;;;;;;7.03;1.88;;;;;;;;;;4971353;28;20380;-70
2021/08/17 12:19:20;;;;;;;8.23;2.00;;;;;;;;;;4978444;28;20045;-70
2021/08/17 12:21:46;;;;;;;15.10;2.47;;;;;;;;;;4974341;28;20031;-70
2021/08/17 12:24:26;;;;;;;8.85;2.10;;;;;;;;;;4981292;28;20081;-70
2021/08/17 12:26:58;;;;;;;7.45;1.85;;;;;;;;;;4989970;28;20724;-70
2021/08/17 12:29:24;;;;;;;10.98;2.33;;;;;;;;;;4975085;28;20038;-70
2021/08/17 12:31:54;;;;;;;9.10;2.00;;;;;;;;;;4977524;28;20043;-70
2021/08/17 12:34:23;;;;;;;5.53;1.67;;;;;;;;;;4972954;28;20074;-70
2021/08/17 12:36:50;;;;;;;9.82;1.83;;;;;;;;;;4985528;28;20031;-71
2021/08/17 12:39:30;;;;;;;9.15;1.98;;;;;;;;;;4983418;28;20026;-70
2021/08/17 12:42:03;;;;;;;7.60;1.80;;;;;;;;;;4983297;28;20061;-73
2021/08/17 12:44:33;;;;;;;6.85;1.88;;;;;;;;;;4975732;28;20468;-72
2021/08/17 12:47:00;;;;;;;5.53;2.30;;;;;;;;;;4977951;28;20031;-72
2021/08/17 12:49:45;;;;;;;12.63;2.45;;;;;;;;;;4975581;28;20041;-72
2021/08/17 12:52:19;;;;;;;4.25;1.80;;;;;;;;;;4996727;28;20030;-72
2021/08/17 12:54:45;;;;;;;6.10;1.90;;;;;;;;;;4978274;28;20158;-71
2021/08/17 12:57:11;;;;;;;7.25;1.60;;;;;;;;;;4983286;28;20337;-71
2021/08/17 12:59:37;;;;;;;7.88;1.80;;;;;;;;;;4979552;28;20035;-71
2021/08/17 13:02:03;;;;;;;9.32;1.83;;;;;;;;;;4977047;28;20035;-71
2021/08/17 13:04:29;;;;;;;10.93;2.05;;;;;;;;;;4981679;28;20041;-71
2021/08/17 13:06:55;;;;;;;5.53;1.80;;;;;;;;;;4975379;28;20026;-71
2021/08/17 13:09:21;;;;;;;7.32;1.90;;;;;;;;;;4978159;28;20026;-71
2021/08/17 13:11:46;;;;;;;5.57;1.73;;;;;;;;;;4972886;28;20030;-71
2021/08/17 13:14:12;;;;;;;5.45;1.80;;;;;;;;;;4976709;28;20441;-71
2021/08/17 13:16:38;;;;;;;7.35;1.80;;;;;;;;;;4972798;28;20122;-72
2021/08/17 13:19:04;;;;;;;7.60;1.73;;;;;;;;;;4979019;28;20358;-71
2021/08/17 13:21:30;;;;;;;4.05;1.48;;;;;;;;;;4975080;28;20042;-72
2021/08/17 13:23:57;;;;;;;8.25;1.95;;;;;;;;;;4984632;28;20037;-69
2021/08/17 13:26:23;;;;;;;9.20;1.90;;;;;;;;;;4989684;28;20034;-70
2021/08/17 13:28:49;;;;;;;4.75;2.00;;;;;;;;;;4982031;28;20465;-71
2021/08/17 13:31:15;;;;;;;6.22;1.67;;;;;;;;;;4979457;28;20037;-70
2021/08/17 13:33:41;;;;;;;7.00;2.03;;;;;;;;;;4987183;28;20061;-70
2021/08/17 13:36:07;;;;;;;3.25;1.60;;;;;;;;;;4983177;28;20058;-71
2021/08/17 13:38:33;;;;;;;4.22;1.90;;;;;;;;;;4972273;28;20456;-71
2021/08/17 13:40:59;;;;;;;8.38;1.73;;;;;;;;;;4987566;28;20053;-71
2021/08/17 13:43:26;;;;;;;4.43;1.75;;;;;;;;;;4987127;28;20037;-71
2021/08/17 13:45:52;;;;;;;6.55;2.05;;;;;;;;;;4971795;28;20031;-72
2021/08/17 13:48:17;;;;;;;6.78;2.10;;;;;;;;;;4975456;28;20073;-71
2021/08/17 13:50:43;;;;;;;6.35;1.70;;;;;;;;;;4983118;28;20010;-71
2021/08/17 13:53:09;;;;;;;4.88;1.90;;;;;;;;;;4981352;28;20023;-71
2021/08/17 13:55:35;;;;;;;4.68;1.70;;;;;;;;;;4985430;28;20031;-71
2021/08/17 13:58:01;;;;;;;4.18;1.73;;;;;;;;;;4981544;28;20023;-71
2021/08/17 14:00:27;;;;;;;8.38;1.90;;;;;;;;;;4976119;28;20027;-71
2021/08/17 14:02:54;;;;;;;6.10;1.98;;;;;;;;;;4977151;28;20050;-71
2021/08/17 14:05:20;;;;;;;9.38;1.85;;;;;;;;;;4979119;28;20532;-70
2021/08/17 14:07:46;;;;;;;3.65;1.75;;;;;;;;;;4976203;28;20035;-71
2021/08/17 14:10:12;;;;;;;4.97;1.90;;;;;;;;;;4975172;28;20506;-71
2021/08/17 14:12:38;;;;;;;5.43;2.05;;;;;;;;;;4982632;28;20053;-71
2021/08/17 14:15:04;;;;;;;6.80;1.92;;;;;;;;;;4986047;28;20035;-71
2021/08/17 14:17:30;;;;;;;6.97;2.38;;;;;;;;;;4984400;28;20040;-71
2021/08/17 14:19:56;;;;;;;6.45;2.35;;;;;;;;;;4980815;28;20015;-70
2021/08/17 14:22:22;;;;;;;5.63;1.90;;;;;;;;;;4982448;28;20385;-74
2021/08/17 14:24:48;;;;;;;8.02;2.15;;;;;;;;;;4982323;28;20037;-72
2021/08/17 14:27:14;;;;;;;7.53;2.30;;;;;;;;;;4969271;28;20093;-70
2021/08/17 14:29:40;;;;;;;6.63;2.22;;;;;;;;;;4981539;28;20525;-75
2021/08/17 14:32:06;;;;;;;8.30;1.95;;;;;;;;;;4982677;28;20030;-75
2021/08/17 14:34:32;;;;;;;6.10;2.45;;;;;;;;;;4973566;28;20041;-74
2021/08/17 14:36:57;;;;;;;6.57;2.60;;;;;;;;;;4986280;28;20023;-75
2021/08/17 14:39:24;;;;;;;3.70;1.95;;;;;;;;;;4986554;28;20035;-73
2021/08/17 14:41:50;;;;;;;7.07;2.58;;;;;;;;;;4980832;28;20030;-73